Yantisville, Illinois
Current Conditions -  °F | °C
As of 2:54 AM on Saturday 01 Nov 2014 (Local Time) from KDEC Reporting Station
Clear Clear  
Wind Chill: 21°   Ceiling: Unl
Heat Index: 32°   Visibility: 10mi
Dew Point: 22°   Wind: 16mph
Humidity: 66%   Direction: 330°NNW
Pressure: 30.36"   Gusts: NA
Location:  39.5113°N, 88.7629°W
Report Text: KDEC 010754Z AUTO 33014KT 10SM CLR 00/M06 A3036 RMK AO2 SLP286 T00001056 TSNO
Loading
Personal Weather Stations






























Interactive Weather Map
Tropical Storm Tracking
New forecast layout! Learn more

10-Day Weather Forecast

Advertisements
Track Severe Weather on mobile